KHEI Airport (Hettinger Muni) Information

FAA: HEI - ICAO: KHEI

KHEI Airport Location

State North Dakota
County Adams
City Hettinger
KHEI Airport is 1 miles northwest of Hettinger, ND.
Latitude 46-00-53.6000N
Longitude 102-39-21.6000W
Elevation 2,705ft

KHEI Airport METARs

METAR KHEI 281253Z AUTO 30012KT 10SM CLR 03/M03 A3004 RMK AO2 SLP189 T00331028
Altimeter 30.04"
Temperature 3.3°C (37.9°F)
Wind 300° at 12KT
Clouds Skies are clear.
Visibility 10.0mi
Time observed: 2021-10-28T12:53:00Z

KHEI Airport Details

Status Operational
Activation January 1947
Ownership Public
Usage Public
Chart BILLINGS
ATC on-site No
Beacon schedule sunset-sunrise
Beacon color clear green

KHEI Airport Contacts

Owner ADAMS CO ARPT AUTH
Owner address BOX 429, HETTINGER, ND 58639
Owner phone 701-567-2069
Manager NICK PASTERNAK
Manager address N/A, GRENORA, ND 58845
Manager phone 701-826-3351

KHEI Airport (Hettinger Muni) Radio Frequencies

KHEI (Airport) Radio Frequencies

UNICOM 122.8
Common traffic advisory frequency (CTAF) 122.8